createdAt,value
2023-04-03T00:00:04.269Z,1003.53
2023-04-03T00:01:04.256Z,1003.53
2023-04-03T00:02:04.385Z,1003.52
2023-04-03T00:03:04.312Z,1003.53
2023-04-03T00:04:04.396Z,1003.49
2023-04-03T00:05:04.349Z,1003.53
2023-04-03T00:06:04.352Z,1003.55
2023-04-03T00:07:04.425Z,1003.49
2023-04-03T00:08:04.394Z,1003.51
2023-04-03T00:09:04.430Z,1003.53
2023-04-03T00:10:04.414Z,1003.54
2023-04-03T00:11:04.424Z,1003.51
2023-04-03T00:12:04.423Z,1003.55
2023-04-03T00:13:04.462Z,1003.53
2023-04-03T00:14:04.447Z,1003.54
2023-04-03T00:15:04.497Z,1003.50
2023-04-03T00:16:04.496Z,1003.48
2023-04-03T00:17:04.535Z,1003.58
2023-04-03T00:18:04.514Z,1003.55
2023-04-03T00:19:04.482Z,1003.57
2023-04-03T00:20:04.490Z,1003.52
2023-04-03T00:21:04.502Z,1003.49
2023-04-03T00:22:04.519Z,1003.47
2023-04-03T00:23:04.592Z,1003.46
2023-04-03T00:24:04.570Z,1003.45
2023-04-03T00:25:04.609Z,1003.54
2023-04-03T00:26:04.598Z,1003.59
2023-04-03T00:27:04.600Z,1003.55
2023-04-03T00:28:04.647Z,1003.55
2023-04-03T00:29:04.614Z,1003.46
2023-04-03T00:30:04.600Z,1003.49
2023-04-03T00:31:04.660Z,1003.49
2023-04-03T00:32:04.627Z,1003.54
2023-04-03T00:33:04.765Z,1003.51
2023-04-03T00:34:04.700Z,1003.57
2023-04-03T00:35:04.722Z,1003.49
2023-04-03T00:36:04.757Z,1003.52
2023-04-03T00:37:04.808Z,1003.51
2023-04-03T00:38:04.768Z,1003.50
2023-04-03T00:39:04.763Z,1003.43
2023-04-03T00:40:04.841Z,1003.52
2023-04-03T00:41:04.766Z,1003.51
2023-04-03T00:42:04.823Z,1003.40
2023-04-03T00:43:04.820Z,1003.41
2023-04-03T00:44:04.829Z,1003.43
2023-04-03T00:45:04.822Z,1003.49
2023-04-03T00:46:04.873Z,1003.45
2023-04-03T00:47:04.848Z,1003.48
2023-04-03T00:48:04.898Z,1003.44
2023-04-03T00:49:04.829Z,1003.40
2023-04-03T00:50:04.838Z,1003.46
2023-04-03T00:51:04.908Z,1003.52
2023-04-03T00:52:04.910Z,1003.46
2023-04-03T00:53:04.923Z,1003.49
2023-04-03T00:54:04.935Z,1003.41
2023-04-03T00:55:04.947Z,1003.45
2023-04-03T00:56:04.959Z,1003.45
2023-04-03T00:57:04.984Z,1003.48
2023-04-03T00:58:04.998Z,1003.45
2023-04-03T00:59:04.974Z,1003.49
2023-04-03T01:00:04.991Z,1003.42
2023-04-03T01:01:05.002Z,1003.41
2023-04-03T01:02:05.026Z,1003.49
2023-04-03T01:03:05.076Z,1003.45
2023-04-03T01:04:05.145Z,1003.40
2023-04-03T01:05:05.114Z,1003.38
2023-04-03T01:06:05.051Z,1003.38
2023-04-03T01:07:05.063Z,1003.44
2023-04-03T01:08:05.119Z,1003.34
2023-04-03T01:09:05.114Z,1003.34
2023-04-03T01:10:05.150Z,1003.31
2023-04-03T01:11:05.129Z,1003.34
2023-04-03T01:12:05.153Z,1003.33
2023-04-03T01:13:05.168Z,1003.31
2023-04-03T01:14:05.184Z,1003.35
2023-04-03T01:15:05.197Z,1003.30
2023-04-03T01:16:05.211Z,1003.37
2023-04-03T01:17:05.208Z,1003.33
2023-04-03T01:18:05.238Z,1003.39
2023-04-03T01:19:05.292Z,1003.26
2023-04-03T01:20:05.242Z,1003.43
2023-04-03T01:21:05.290Z,1003.39
2023-04-03T01:22:05.251Z,1003.38
2023-04-03T01:23:05.286Z,1003.41
2023-04-03T01:24:05.292Z,1003.39
2023-04-03T01:25:05.308Z,1003.37
2023-04-03T01:26:26.358Z,1003.46
2023-04-03T01:27:26.376Z,1003.40
2023-04-03T01:28:26.368Z,1003.39
2023-04-03T01:29:26.413Z,1003.42
2023-04-03T01:30:26.366Z,1003.44
2023-04-03T01:31:26.383Z,1003.39
2023-04-03T01:32:26.413Z,1003.49
2023-04-03T01:33:26.356Z,1003.45
2023-04-03T01:34:26.382Z,1003.47
2023-04-03T01:35:26.390Z,1003.51
2023-04-03T01:36:26.388Z,1003.47
2023-04-03T01:37:26.420Z,1003.49
2023-04-03T01:38:26.419Z,1003.41
2023-04-03T01:39:26.403Z,1003.42
2023-04-03T01:40:26.443Z,1003.45
2023-04-03T01:41:26.415Z,1003.51
2023-04-03T01:42:26.403Z,1003.49
2023-04-03T01:43:26.405Z,1003.43
2023-04-03T01:44:26.405Z,1003.49
2023-04-03T01:45:26.430Z,1003.45
2023-04-03T01:46:26.442Z,1003.58
2023-04-03T01:47:26.468Z,1003.42
2023-04-03T01:48:26.406Z,1003.46
2023-04-03T01:49:26.409Z,1003.44
2023-04-03T01:50:26.405Z,1003.47
2023-04-03T01:51:26.396Z,1003.49
2023-04-03T01:52:26.386Z,1003.58
2023-04-03T01:53:26.403Z,1003.50
2023-04-03T01:54:26.427Z,1003.49
2023-04-03T01:55:26.416Z,1003.55
2023-04-03T01:56:26.422Z,1003.46
2023-04-03T01:57:26.439Z,1003.45
2023-04-03T01:58:26.417Z,1003.45
2023-04-03T01:59:26.436Z,1003.46
2023-04-03T02:00:26.427Z,1003.41
2023-04-03T02:01:26.551Z,1003.50
2023-04-03T02:02:26.566Z,1003.47
2023-04-03T02:03:26.597Z,1003.45
2023-04-03T02:04:26.676Z,1003.41
2023-04-03T02:05:26.633Z,1003.50
2023-04-03T02:06:26.604Z,1003.48
2023-04-03T02:07:26.618Z,1003.57
2023-04-03T02:08:26.638Z,1003.43
2023-04-03T02:09:26.658Z,1003.47
2023-04-03T02:10:26.673Z,1003.46
2023-04-03T02:11:26.672Z,1003.52
2023-04-03T02:12:26.683Z,1003.56
2023-04-03T02:13:26.695Z,1003.55
2023-04-03T02:14:26.734Z,1003.60
2023-04-03T02:15:26.722Z,1003.49
2023-04-03T02:16:26.773Z,1003.52
2023-04-03T02:17:26.779Z,1003.51
2023-04-03T02:18:26.742Z,1003.49
2023-04-03T02:19:26.786Z,1003.50
2023-04-03T02:20:26.765Z,1003.50
2023-04-03T02:21:26.766Z,1003.54
2023-04-03T02:22:26.772Z,1003.54
2023-04-03T02:23:26.777Z,1003.46
2023-04-03T02:24:26.800Z,1003.48
2023-04-03T02:25:26.808Z,1003.48
2023-04-03T02:26:26.824Z,1003.51
2023-04-03T02:27:26.852Z,1003.53
2023-04-03T02:28:26.830Z,1003.49
2023-04-03T02:29:26.860Z,1003.50
2023-04-03T02:30:26.865Z,1003.50
2023-04-03T02:31:26.994Z,1003.45
2023-04-03T02:32:26.911Z,1003.49
2023-04-03T02:33:26.910Z,1003.47
2023-04-03T02:34:26.903Z,1003.47
2023-04-03T02:35:27.085Z,1003.47
2023-04-03T02:36:26.983Z,1003.45
2023-04-03T02:37:26.967Z,1003.47
2023-04-03T02:38:26.958Z,1003.48
2023-04-03T02:39:26.964Z,1003.47
2023-04-03T02:40:26.977Z,1003.45
2023-04-03T02:41:27.007Z,1003.49
2023-04-03T02:42:27.006Z,1003.44
2023-04-03T02:43:27.031Z,1003.44
2023-04-03T02:44:27.027Z,1003.47
2023-04-03T02:45:27.057Z,1003.47
2023-04-03T02:46:27.144Z,1003.47
2023-04-03T02:47:27.078Z,1003.48
2023-04-03T02:48:27.092Z,1003.50
2023-04-03T02:49:27.097Z,1003.49
2023-04-03T02:50:27.132Z,1003.47
2023-04-03T02:51:27.130Z,1003.45
2023-04-03T02:52:27.160Z,1003.46
2023-04-03T02:53:27.156Z,1003.42
2023-04-03T02:54:27.152Z,1003.45
2023-04-03T02:55:27.206Z,1003.51
2023-04-03T02:56:27.186Z,1003.49
2023-04-03T02:57:27.244Z,1003.48
2023-04-03T02:58:27.197Z,1003.50
2023-04-03T02:59:27.235Z,1003.41
2023-04-03T03:00:27.247Z,1003.50
2023-04-03T03:01:27.282Z,1003.47
2023-04-03T03:02:27.353Z,1003.51
2023-04-03T03:03:27.270Z,1003.53
2023-04-03T03:04:27.280Z,1003.54
2023-04-03T03:05:27.296Z,1003.53
2023-04-03T03:06:27.330Z,1003.50
2023-04-03T03:07:27.312Z,1003.50
2023-04-03T03:08:27.362Z,1003.53
2023-04-03T03:09:27.338Z,1003.55
2023-04-03T03:10:27.385Z,1003.56
2023-04-03T03:11:27.364Z,1003.54
2023-04-03T03:12:27.368Z,1003.57
2023-04-03T03:13:27.396Z,1003.50
2023-04-03T03:14:27.418Z,1003.58
2023-04-03T03:15:27.440Z,1003.53
2023-04-03T03:16:27.623Z,1003.45
2023-04-03T03:17:27.475Z,1003.54
2023-04-03T03:18:27.484Z,1003.63
2023-04-03T03:19:27.492Z,1003.50
2023-04-03T03:20:27.506Z,1003.52
2023-04-03T03:21:27.491Z,1003.66
2023-04-03T03:22:27.499Z,1003.50
2023-04-03T03:23:27.529Z,1003.52
2023-04-03T03:24:27.570Z,1003.50
2023-04-03T03:25:27.630Z,1003.57
2023-04-03T03:26:27.588Z,1003.61
2023-04-03T03:27:27.644Z,1003.51
2023-04-03T03:28:27.588Z,1003.57
2023-04-03T03:29:27.611Z,1003.58
2023-04-03T03:30:27.615Z,1003.56
2023-04-03T03:31:27.677Z,1003.61
2023-04-03T03:32:27.739Z,1003.62
2023-04-03T03:33:27.640Z,1003.69
2023-04-03T03:34:27.633Z,1003.64
2023-04-03T03:35:27.666Z,1003.61
2023-04-03T03:36:27.679Z,1003.64
2023-04-03T03:37:27.673Z,1003.64
2023-04-03T03:38:27.702Z,1003.68
2023-04-03T03:39:27.712Z,1003.67
2023-04-03T03:40:27.794Z,1003.67
2023-04-03T03:41:27.761Z,1003.65
2023-04-03T03:42:27.761Z,1003.61
2023-04-03T03:43:27.752Z,1003.62
2023-04-03T03:44:27.794Z,1003.67
2023-04-03T03:45:27.804Z,1003.66
2023-04-03T03:46:27.865Z,1003.66
2023-04-03T03:47:27.878Z,1003.69
2023-04-03T03:48:27.820Z,1003.68
2023-04-03T03:49:27.896Z,1003.70
2023-04-03T03:50:27.835Z,1003.73
2023-04-03T03:51:28.168Z,1003.71
2023-04-03T03:52:27.883Z,1003.74
2023-04-03T03:53:27.876Z,1003.67
2023-04-03T03:54:27.958Z,1003.69
2023-04-03T03:55:27.941Z,1003.67
2023-04-03T03:56:27.960Z,1003.72
2023-04-03T03:57:27.973Z,1003.73
2023-04-03T03:58:27.947Z,1003.69
2023-04-03T03:59:27.979Z,1003.68
2023-04-03T04:00:27.990Z,1003.66
2023-04-03T04:01:28.021Z,1003.66
2023-04-03T04:02:28.076Z,1003.60
2023-04-03T04:03:28.057Z,1003.64
2023-04-03T04:04:28.094Z,1003.66
2023-04-03T04:05:28.046Z,1003.68
2023-04-03T04:06:28.080Z,1003.61
2023-04-03T04:07:28.069Z,1003.69
2023-04-03T04:08:28.101Z,1003.68
2023-04-03T04:09:28.128Z,1003.77
2023-04-03T04:10:28.177Z,1003.69
2023-04-03T04:11:28.200Z,1003.77
2023-04-03T04:12:28.168Z,1003.75
2023-04-03T04:13:28.127Z,1003.75
2023-04-03T04:14:28.141Z,1003.80
2023-04-03T04:15:28.219Z,1003.72
2023-04-03T04:16:28.209Z,1003.78
2023-04-03T04:17:28.239Z,1003.79
2023-04-03T04:18:28.232Z,1003.76
2023-04-03T04:19:28.290Z,1003.76
2023-04-03T04:20:28.266Z,1003.75
2023-04-03T04:21:28.251Z,1003.72
2023-04-03T04:22:28.320Z,1003.75
2023-04-03T04:23:28.325Z,1003.70
2023-04-03T04:24:28.256Z,1003.74
2023-04-03T04:25:28.346Z,1003.79
2023-04-03T04:26:28.304Z,1003.75
2023-04-03T04:27:28.290Z,1003.77
2023-04-03T04:28:28.367Z,1003.74
2023-04-03T04:29:28.356Z,1003.81
2023-04-03T04:30:28.372Z,1003.79
2023-04-03T04:31:28.386Z,1003.85
2023-04-03T04:32:28.458Z,1003.84
2023-04-03T04:33:28.376Z,1003.75
2023-04-03T04:34:28.370Z,1003.81
2023-04-03T04:35:28.530Z,1003.77
2023-04-03T04:36:28.427Z,1003.84
2023-04-03T04:37:28.453Z,1003.82
2023-04-03T04:38:28.468Z,1003.84
2023-04-03T04:39:28.480Z,1003.86
2023-04-03T04:40:28.448Z,1003.86
2023-04-03T04:41:28.523Z,1003.83
2023-04-03T04:42:28.506Z,1003.83
2023-04-03T04:43:28.523Z,1003.86
2023-04-03T04:44:28.534Z,1003.89
2023-04-03T04:45:28.523Z,1003.81
2023-04-03T04:46:28.634Z,1003.89
2023-04-03T04:47:28.570Z,1003.81
2023-04-03T04:48:29.585Z,1003.82
2023-04-03T04:49:28.606Z,1003.88
2023-04-03T04:50:28.576Z,1003.89
2023-04-03T04:51:35.070Z,1003.87
2023-04-03T04:52:28.545Z,1003.86
2023-04-03T04:53:28.554Z,1003.87
2023-04-03T04:54:28.577Z,1003.89
2023-04-03T04:55:28.607Z,1003.90
2023-04-03T04:56:28.556Z,1003.87
2023-04-03T04:57:28.652Z,1003.94
2023-04-03T04:58:28.630Z,1003.94
2023-04-03T04:59:28.569Z,1003.94
2023-04-03T05:00:28.613Z,1003.94
2023-04-03T05:01:28.640Z,1003.95
2023-04-03T05:02:28.576Z,1003.92
2023-04-03T05:03:28.599Z,1003.94
2023-04-03T05:04:28.708Z,1003.94
2023-04-03T05:05:28.644Z,1003.93
2023-04-03T05:06:28.565Z,1003.93
2023-04-03T05:07:28.637Z,1003.98
2023-04-03T05:08:28.604Z,1004.02
2023-04-03T05:09:28.587Z,1003.91
2023-04-03T05:10:28.591Z,1003.96
2023-04-03T05:11:28.590Z,1003.99
2023-04-03T05:12:28.592Z,1003.94
2023-04-03T05:13:28.637Z,1004.00
2023-04-03T05:14:28.537Z,1004.09
2023-04-03T05:15:28.651Z,1004.01
2023-04-03T05:16:28.689Z,1004.07
2023-04-03T05:17:28.600Z,1004.06
2023-04-03T05:18:28.554Z,1004.09
2023-04-03T05:19:28.590Z,1004.17
2023-04-03T05:20:28.577Z,1004.13
2023-04-03T05:21:28.590Z,1004.14
2023-04-03T05:22:28.602Z,1004.21
2023-04-03T05:23:28.589Z,1004.11
2023-04-03T05:24:28.594Z,1004.19
2023-04-03T05:25:28.637Z,1004.13
2023-04-03T05:26:28.634Z,1004.19
2023-04-03T05:27:28.612Z,1004.18
2023-04-03T05:28:28.599Z,1004.15
2023-04-03T05:29:28.608Z,1004.13
2023-04-03T05:30:28.591Z,1004.16
2023-04-03T05:31:28.669Z,1004.16
2023-04-03T05:32:28.834Z,1004.22
2023-04-03T05:33:28.602Z,1004.22
2023-04-03T05:34:28.601Z,1004.29
2023-04-03T05:35:28.626Z,1004.25
2023-04-03T05:36:28.673Z,1004.35
2023-04-03T05:37:28.622Z,1004.36
2023-04-03T05:38:28.636Z,1004.32
2023-04-03T05:39:28.633Z,1004.33
2023-04-03T05:40:28.632Z,1004.35
2023-04-03T05:41:28.674Z,1004.38
2023-04-03T05:42:28.709Z,1004.34
2023-04-03T05:43:28.628Z,1004.39
2023-04-03T05:44:28.657Z,1004.37
2023-04-03T05:45:28.643Z,1004.39
2023-04-03T05:46:28.642Z,1004.45
2023-04-03T05:47:28.638Z,1004.44
2023-04-03T05:48:28.622Z,1004.49
2023-04-03T05:49:28.671Z,1004.42
2023-04-03T05:50:28.650Z,1004.46
2023-04-03T05:51:28.684Z,1004.44
2023-04-03T05:52:28.635Z,1004.50
2023-04-03T05:53:28.623Z,1004.52
2023-04-03T05:54:28.625Z,1004.50
2023-04-03T05:55:28.673Z,1004.56
2023-04-03T05:56:28.614Z,1004.55
2023-04-03T05:57:28.641Z,1004.50
2023-04-03T05:58:28.633Z,1004.55
2023-04-03T05:59:28.638Z,1004.57
2023-04-03T06:00:28.643Z,1004.60
2023-04-03T06:01:28.622Z,1004.54
2023-04-03T06:02:31.372Z,1004.54
2023-04-03T06:03:28.757Z,1004.61
2023-04-03T06:04:28.704Z,1004.55
2023-04-03T06:05:28.785Z,1004.67
2023-04-03T06:06:28.624Z,1004.62
2023-04-03T06:07:28.651Z,1004.67
2023-04-03T06:08:28.637Z,1004.62
2023-04-03T06:09:28.637Z,1004.62
2023-04-03T06:10:28.627Z,1004.65
2023-04-03T06:11:28.615Z,1004.60
2023-04-03T06:12:28.691Z,1004.61
2023-04-03T06:13:28.631Z,1004.60
2023-04-03T06:14:28.643Z,1004.66
2023-04-03T06:15:28.631Z,1004.75
2023-04-03T06:16:28.673Z,1004.72
2023-04-03T06:17:28.686Z,1004.66
2023-04-03T06:18:28.664Z,1004.72
2023-04-03T06:19:28.642Z,1004.72
2023-04-03T06:20:28.685Z,1004.71
2023-04-03T06:21:28.708Z,1004.75
2023-04-03T06:22:28.656Z,1004.83
2023-04-03T06:23:28.619Z,1004.80
2023-04-03T06:24:28.683Z,1004.82
2023-04-03T06:25:28.682Z,1004.74
2023-04-03T06:26:28.716Z,1004.81
2023-04-03T06:27:28.655Z,1004.77
2023-04-03T06:28:28.712Z,1004.83
2023-04-03T06:29:28.679Z,1004.85
2023-04-03T06:30:28.708Z,1004.83
2023-04-03T06:31:28.773Z,1004.86
2023-04-03T06:32:28.722Z,1004.90
2023-04-03T06:33:28.649Z,1004.92
2023-04-03T06:34:28.705Z,1004.84
2023-04-03T06:35:28.657Z,1004.87
2023-04-03T06:36:28.928Z,1004.90
2023-04-03T06:37:28.723Z,1004.87
2023-04-03T06:38:28.681Z,1004.90
2023-04-03T06:39:28.584Z,1004.96
2023-04-03T06:40:28.643Z,1004.94
2023-04-03T06:41:28.596Z,1004.96
2023-04-03T06:42:28.668Z,1004.94
2023-04-03T06:43:28.616Z,1004.99
2023-04-03T06:44:28.603Z,1004.98
2023-04-03T06:45:28.676Z,1005.01
2023-04-03T06:46:28.740Z,1004.98
2023-04-03T06:47:28.672Z,1004.99
2023-04-03T06:48:28.670Z,1004.97
2023-04-03T06:49:28.668Z,1005.02
2023-04-03T06:50:28.632Z,1005.04
2023-04-03T06:51:28.710Z,1005.04
2023-04-03T06:52:28.651Z,1005.04
2023-04-03T06:53:28.728Z,1005.02
2023-04-03T06:54:28.683Z,1005.08
2023-04-03T06:55:28.642Z,1005.15
2023-04-03T06:56:28.666Z,1005.07
2023-04-03T06:57:28.735Z,1005.15
2023-04-03T06:58:28.675Z,1005.04
2023-04-03T06:59:28.744Z,1005.03
2023-04-03T07:00:28.653Z,1005.22
2023-04-03T07:01:28.951Z,1005.09
2023-04-03T07:02:28.760Z,1005.11
2023-04-03T07:03:28.792Z,1005.09
2023-04-03T07:04:28.722Z,1005.03
2023-04-03T07:05:28.693Z,1005.05
2023-04-03T07:06:28.678Z,1005.13
2023-04-03T07:07:28.691Z,1005.16
2023-04-03T07:08:28.717Z,1005.15
2023-04-03T07:09:28.704Z,1005.13
2023-04-03T07:10:28.622Z,1005.10
2023-04-03T07:11:28.616Z,1005.05
2023-04-03T07:12:28.622Z,1005.13
2023-04-03T07:13:28.733Z,1005.09
2023-04-03T07:14:28.700Z,1005.11
2023-04-03T07:15:28.725Z,1005.22
2023-04-03T07:16:28.708Z,1005.16
2023-04-03T07:17:28.759Z,1005.11
2023-04-03T07:18:28.656Z,1005.18
2023-04-03T07:19:28.700Z,1005.29
2023-04-03T07:20:28.673Z,1005.26
2023-04-03T07:21:28.668Z,1005.27
2023-04-03T07:22:28.739Z,1005.22
2023-04-03T07:23:28.675Z,1005.31
2023-04-03T07:24:28.712Z,1005.23
2023-04-03T07:25:28.715Z,1005.26
2023-04-03T07:27:06.053Z,1005.28
2023-04-03T07:28:06.076Z,1005.20
2023-04-03T07:29:06.106Z,1005.35
2023-04-03T07:30:06.099Z,1005.24
2023-04-03T07:31:06.150Z,1005.29
2023-04-03T07:32:06.160Z,1005.28
2023-04-03T07:33:06.133Z,1005.33
2023-04-03T07:34:06.081Z,1005.31
2023-04-03T07:35:06.081Z,1005.35
2023-04-03T07:36:06.106Z,1005.35
2023-04-03T07:37:06.094Z,1005.31
2023-04-03T07:38:06.077Z,1005.40
2023-04-03T07:39:06.146Z,1005.41
2023-04-03T07:40:06.066Z,1005.40
2023-04-03T07:41:06.063Z,1005.35
2023-04-03T07:42:06.090Z,1005.39
2023-04-03T07:43:06.072Z,1005.42
2023-04-03T07:44:06.102Z,1005.45
2023-04-03T07:45:06.092Z,1005.39
2023-04-03T07:46:06.116Z,1005.35
2023-04-03T07:47:06.079Z,1005.42
2023-04-03T07:48:06.078Z,1005.47
2023-04-03T07:49:06.083Z,1005.45
2023-04-03T07:50:06.057Z,1005.39
2023-04-03T07:51:06.065Z,1005.46
2023-04-03T07:52:06.088Z,1005.45
2023-04-03T07:53:06.089Z,1005.43
2023-04-03T07:54:06.206Z,1005.47
2023-04-03T07:55:06.097Z,1005.44
2023-04-03T07:56:06.083Z,1005.42
2023-04-03T07:57:06.153Z,1005.48
2023-04-03T07:58:06.090Z,1005.51
2023-04-03T07:59:06.070Z,1005.48
2023-04-03T08:00:06.091Z,1005.54
2023-04-03T08:01:06.088Z,1005.51
2023-04-03T08:02:06.107Z,1005.54
2023-04-03T08:03:06.354Z,1005.55
2023-04-03T08:04:06.280Z,1005.55
2023-04-03T08:05:06.369Z,1005.55
2023-04-03T08:06:09.147Z,1005.59
2023-04-03T08:07:06.250Z,1005.53
2023-04-03T08:08:06.235Z,1005.60
2023-04-03T08:09:06.267Z,1005.57
2023-04-03T08:10:06.290Z,1005.59
2023-04-03T08:11:06.263Z,1005.54
2023-04-03T08:12:06.267Z,1005.53
2023-04-03T08:13:06.288Z,1005.53
2023-04-03T08:14:06.298Z,1005.61
2023-04-03T08:15:06.323Z,1005.53
2023-04-03T08:16:06.315Z,1005.56
2023-04-03T08:17:06.389Z,1005.49
2023-04-03T08:18:06.375Z,1005.53
2023-04-03T08:19:09.698Z,1005.50
2023-04-03T08:20:06.377Z,1005.50
2023-04-03T08:21:06.381Z,1005.55
2023-04-03T08:22:06.353Z,1005.52
2023-04-03T08:23:06.360Z,1005.51
2023-04-03T08:24:06.362Z,1005.53
2023-04-03T08:25:06.425Z,1005.49
2023-04-03T08:26:06.376Z,1005.60
2023-04-03T08:27:06.367Z,1005.52
2023-04-03T08:28:06.399Z,1005.56
2023-04-03T08:29:06.363Z,1005.48
2023-04-03T08:30:06.367Z,1005.42
2023-04-03T08:31:06.388Z,1005.42
2023-04-03T08:32:06.388Z,1005.35
2023-04-03T08:33:06.453Z,1005.51
2023-04-03T08:34:06.383Z,1005.55
2023-04-03T08:35:06.418Z,1005.38
2023-04-03T08:36:06.489Z,1005.47
2023-04-03T08:37:06.412Z,1005.47
2023-04-03T08:38:06.447Z,1005.47
2023-04-03T08:39:06.444Z,1005.46
2023-04-03T08:40:06.457Z,1005.47
2023-04-03T08:41:06.489Z,1005.54
2023-04-03T08:42:06.534Z,1005.48
2023-04-03T08:43:09.536Z,1005.47
2023-04-03T08:44:06.514Z,1005.45
2023-04-03T08:45:06.526Z,1005.46
2023-04-03T08:46:06.525Z,1005.44
2023-04-03T08:47:06.520Z,1005.47
2023-04-03T08:48:06.592Z,1005.43
2023-04-03T08:49:06.516Z,1005.52
2023-04-03T08:50:06.496Z,1005.46
2023-04-03T08:51:10.852Z,1005.46
2023-04-03T08:52:06.540Z,1005.46
2023-04-03T08:53:06.512Z,1005.45
2023-04-03T08:54:06.514Z,1005.50
2023-04-03T08:55:06.528Z,1005.46
2023-04-03T08:56:06.513Z,1005.48
2023-04-03T08:57:06.560Z,1005.58
2023-04-03T08:58:06.486Z,1005.53
2023-04-03T08:59:06.542Z,1005.45
2023-04-03T09:00:06.533Z,1005.50
2023-04-03T09:01:06.534Z,1005.52
2023-04-03T09:02:06.540Z,1005.45
2023-04-03T09:03:06.571Z,1005.50
2023-04-03T09:04:06.551Z,1005.56
2023-04-03T09:05:06.562Z,1005.47
2023-04-03T09:06:06.556Z,1005.47
2023-04-03T09:07:06.544Z,1005.45
2023-04-03T09:08:06.538Z,1005.50
2023-04-03T09:09:06.528Z,1005.46
2023-04-03T09:10:06.523Z,1005.49
2023-04-03T09:11:06.558Z,1005.47
2023-04-03T09:12:06.550Z,1005.48
2023-04-03T09:13:06.504Z,1005.45
2023-04-03T09:14:06.543Z,1005.50
2023-04-03T09:15:06.556Z,1005.41
2023-04-03T09:16:06.593Z,1005.48
2023-04-03T09:17:06.553Z,1005.54
2023-04-03T09:18:06.654Z,1005.51
2023-04-03T09:19:06.628Z,1005.50
2023-04-03T09:20:06.600Z,1005.54
2023-04-03T09:21:06.602Z,1005.54
2023-04-03T09:22:06.634Z,1005.44
2023-04-03T09:23:06.643Z,1005.38
2023-04-03T09:24:06.662Z,1005.39
2023-04-03T09:25:06.672Z,1005.43
2023-04-03T09:26:06.677Z,1005.44
2023-04-03T09:27:06.732Z,1005.39
2023-04-03T09:28:06.703Z,1005.46
2023-04-03T09:29:06.717Z,1005.35
2023-04-03T09:30:06.706Z,1005.31
2023-04-03T09:31:06.740Z,1005.31
2023-04-03T09:32:06.724Z,1005.31
2023-04-03T09:33:06.801Z,1005.30
2023-04-03T09:34:06.844Z,1005.39
2023-04-03T09:35:19.033Z,1005.28
2023-04-03T09:36:06.786Z,1005.27
2023-04-03T09:37:06.825Z,1005.28
2023-04-03T09:38:06.802Z,1005.20
2023-04-03T09:39:06.779Z,1005.23
2023-04-03T09:40:06.791Z,1005.30
2023-04-03T09:41:06.789Z,1005.34
2023-04-03T09:42:06.778Z,1005.24
2023-04-03T09:43:06.807Z,1005.31
2023-04-03T09:44:06.803Z,1005.30
2023-04-03T09:45:06.790Z,1005.22
2023-04-03T09:46:06.784Z,1005.30
2023-04-03T09:47:06.888Z,1005.23
2023-04-03T09:48:08.334Z,1005.27
2023-04-03T09:49:09.883Z,1005.32
2023-04-03T09:50:06.802Z,1005.37
2023-04-03T09:51:06.808Z,1005.38
2023-04-03T09:52:06.800Z,1005.29
2023-04-03T09:53:06.807Z,1005.43
2023-04-03T09:54:06.797Z,1005.27
2023-04-03T09:55:06.812Z,1005.43
2023-04-03T09:56:06.809Z,1005.40
2023-04-03T09:57:06.854Z,1005.28
2023-04-03T09:58:06.802Z,1005.37
2023-04-03T09:59:06.795Z,1005.39
2023-04-03T10:00:06.818Z,1005.31
2023-04-03T10:01:06.806Z,1005.35
2023-04-03T10:02:06.843Z,1005.38
2023-04-03T10:03:06.851Z,1005.30
2023-04-03T10:04:06.922Z,1005.35
2023-04-03T10:05:09.856Z,1005.29
2023-04-03T10:06:06.803Z,1005.28
2023-04-03T10:07:06.823Z,1005.39
2023-04-03T10:08:07.996Z,1005.25
2023-04-03T10:09:06.823Z,1005.27
2023-04-03T10:10:06.818Z,1005.33
2023-04-03T10:11:06.832Z,1005.31
2023-04-03T10:12:06.829Z,1005.20
2023-04-03T10:13:06.883Z,1005.33
2023-04-03T10:14:07.902Z,1005.33
2023-04-03T10:15:06.812Z,1005.24
2023-04-03T10:16:06.858Z,1005.28
2023-04-03T10:17:06.818Z,1005.39
2023-04-03T10:18:21.755Z,1005.32
2023-04-03T10:19:06.837Z,1005.25
2023-04-03T10:20:06.839Z,1005.36
2023-04-03T10:21:07.747Z,1005.39
2023-04-03T10:22:06.863Z,1005.19
2023-04-03T10:23:06.839Z,1005.32
2023-04-03T10:24:06.846Z,1005.27
2023-04-03T10:25:06.821Z,1005.28
2023-04-03T10:26:06.829Z,1005.30
2023-04-03T10:27:06.823Z,1005.31
2023-04-03T10:28:06.826Z,1005.30
2023-04-03T10:29:06.861Z,1005.22
2023-04-03T10:30:06.849Z,1005.33
2023-04-03T10:31:06.864Z,1005.30
2023-04-03T10:32:06.834Z,1005.17
2023-04-03T10:33:06.894Z,1005.13
2023-04-03T10:34:06.847Z,1005.16
2023-04-03T10:35:06.858Z,1005.15
2023-04-03T10:36:06.848Z,1005.18
2023-04-03T10:37:06.841Z,1005.10
2023-04-03T10:38:06.840Z,1005.19
2023-04-03T10:39:06.880Z,1005.23
2023-04-03T10:40:06.845Z,1005.15
2023-04-03T10:41:06.830Z,1005.16
2023-04-03T10:42:16.487Z,1005.14
2023-04-03T10:43:06.847Z,1005.14
2023-04-03T10:44:06.874Z,1005.20
2023-04-03T10:45:06.880Z,1005.25
2023-04-03T10:46:06.924Z,1005.14
2023-04-03T10:47:06.864Z,1005.10
2023-04-03T10:48:06.991Z,1005.12
2023-04-03T10:49:06.864Z,1005.13
2023-04-03T10:50:06.897Z,1005.14
2023-04-03T10:51:06.869Z,1005.12
2023-04-03T10:52:06.849Z,1005.10
2023-04-03T10:53:06.886Z,1005.08
2023-04-03T10:54:06.887Z,1005.19
2023-04-03T10:55:06.871Z,1005.11
2023-04-03T10:56:06.892Z,1005.04
2023-04-03T10:57:12.430Z,1005.08
2023-04-03T10:58:06.897Z,1005.09
2023-04-03T10:59:06.889Z,1005.05
2023-04-03T11:00:06.877Z,1005.05
2023-04-03T11:01:06.918Z,1005.16
2023-04-03T11:02:06.873Z,1005.12
2023-04-03T11:03:06.947Z,1005.13
2023-04-03T11:04:07.145Z,1005.15
2023-04-03T11:05:06.888Z,1005.12
2023-04-03T11:06:06.927Z,1004.97
2023-04-03T11:07:06.893Z,1005.09
2023-04-03T11:08:06.991Z,1005.08
2023-04-03T11:09:06.907Z,1005.04
2023-04-03T11:10:06.902Z,1005.05
2023-04-03T11:11:06.906Z,1005.10
2023-04-03T11:12:06.903Z,1005.01
2023-04-03T11:13:06.934Z,1005.04
2023-04-03T11:14:06.887Z,1005.02
2023-04-03T11:15:06.913Z,1004.98
2023-04-03T11:16:06.924Z,1004.89
2023-04-03T11:17:06.900Z,1004.87
2023-04-03T11:18:07.805Z,1004.81
2023-04-03T11:19:06.892Z,1004.83
2023-04-03T11:20:06.890Z,1004.81
2023-04-03T11:21:06.897Z,1004.89
2023-04-03T11:22:06.892Z,1004.89
2023-04-03T11:23:06.918Z,1004.89
2023-04-03T11:24:06.936Z,1004.90
2023-04-03T11:25:06.912Z,1004.95
2023-04-03T11:26:06.911Z,1004.92
2023-04-03T11:27:06.904Z,1004.83
2023-04-03T11:28:06.926Z,1004.85
2023-04-03T11:29:06.915Z,1004.87
2023-04-03T11:30:06.923Z,1004.76
2023-04-03T11:31:06.926Z,1004.78
2023-04-03T11:32:06.902Z,1004.86
2023-04-03T11:33:06.975Z,1004.82
2023-04-03T11:34:06.916Z,1004.86
2023-04-03T11:35:06.921Z,1004.87
2023-04-03T11:36:19.025Z,1004.76
2023-04-03T11:37:06.923Z,1004.69
2023-04-03T11:38:06.986Z,1004.67
2023-04-03T11:39:06.964Z,1004.65
2023-04-03T11:40:06.927Z,1004.68
2023-04-03T11:41:06.936Z,1004.57
2023-04-03T11:42:13.065Z,1004.71
2023-04-03T11:43:06.900Z,1004.68
2023-04-03T11:44:06.929Z,1004.61
2023-04-03T11:45:06.939Z,1004.69
2023-04-03T11:46:06.928Z,1004.64
2023-04-03T11:47:06.969Z,1004.70
2023-04-03T11:48:20.929Z,1004.78
2023-04-03T11:49:06.952Z,1004.70
2023-04-03T11:50:06.934Z,1004.70
2023-04-03T11:51:06.932Z,1004.63
2023-04-03T11:52:06.942Z,1004.54
2023-04-03T11:53:06.941Z,1004.57
2023-04-03T11:54:06.969Z,1004.56
2023-04-03T11:55:06.930Z,1004.54
2023-04-03T11:56:06.962Z,1004.48
2023-04-03T11:57:06.939Z,1004.53
2023-04-03T11:58:06.956Z,1004.61
2023-04-03T11:59:06.944Z,1004.57
2023-04-03T12:00:06.971Z,1004.57
2023-04-03T12:01:06.970Z,1004.49
2023-04-03T12:02:06.960Z,1004.55
2023-04-03T12:03:07.061Z,1004.54
2023-04-03T12:04:06.973Z,1004.62
2023-04-03T12:05:06.974Z,1004.59
2023-04-03T12:06:06.974Z,1004.50